sensor_id;sensor_type;location;lat;lon;timestamp;temperature;humidity
40738;DHT22;54759;48.094;-1.628;2022-07-29T00:01:14;24.90;58.30
40738;DHT22;54759;48.094;-1.628;2022-07-29T00:04:20;24.90;57.90
40738;DHT22;54759;48.094;-1.628;2022-07-29T00:07:23;24.80;57.90
40738;DHT22;54759;48.094;-1.628;2022-07-29T00:10:25;24.40;57.50
40738;DHT22;54759;48.094;-1.628;2022-07-29T00:13:27;24.50;58.10
40738;DHT22;54759;48.094;-1.628;2022-07-29T00:16:34;24.60;58.20
40738;DHT22;54759;48.094;-1.628;2022-07-29T00:19:35;24.70;58.10
40738;DHT22;54759;48.094;-1.628;2022-07-29T00:22:37;24.60;58.20
40738;DHT22;54759;48.094;-1.628;2022-07-29T00:25:39;24.70;58.20
40738;DHT22;54759;48.094;-1.628;2022-07-29T00:28:41;24.70;58.30
40738;DHT22;54759;48.094;-1.628;2022-07-29T00:31:42;24.60;58.40
40738;DHT22;54759;48.094;-1.628;2022-07-29T00:34:44;24.90;58.20
40738;DHT22;54759;48.094;-1.628;2022-07-29T00:37:56;25.00;58.50
40738;DHT22;54759;48.094;-1.628;2022-07-29T00:40:58;24.60;57.80
40738;DHT22;54759;48.094;-1.628;2022-07-29T00:44:00;25.00;58.40
40738;DHT22;54759;48.094;-1.628;2022-07-29T00:47:01;24.80;58.30
40738;DHT22;54759;48.094;-1.628;2022-07-29T00:50:04;25.40;58.60
40738;DHT22;54759;48.094;-1.628;2022-07-29T00:53:07;25.00;58.20
40738;DHT22;54759;48.094;-1.628;2022-07-29T00:56:10;24.50;57.90
40738;DHT22;54759;48.094;-1.628;2022-07-29T00:59:11;24.80;58.20
40738;DHT22;54759;48.094;-1.628;2022-07-29T01:02:13;24.90;58.20
40738;DHT22;54759;48.094;-1.628;2022-07-29T01:05:16;25.20;58.30
40738;DHT22;54759;48.094;-1.628;2022-07-29T01:08:19;24.80;58.00
40738;DHT22;54759;48.094;-1.628;2022-07-29T01:11:22;24.60;58.00
40738;DHT22;54759;48.094;-1.628;2022-07-29T01:14:23;24.80;58.00
40738;DHT22;54759;48.094;-1.628;2022-07-29T01:17:31;25.30;58.30
40738;DHT22;54759;48.094;-1.628;2022-07-29T01:20:45;24.70;57.80
40738;DHT22;54759;48.094;-1.628;2022-07-29T01:24:05;24.70;57.50
40738;DHT22;54759;48.094;-1.628;2022-07-29T01:27:18;25.10;57.90
40738;DHT22;54759;48.094;-1.628;2022-07-29T01:30:26;25.10;57.70
40738;DHT22;54759;48.094;-1.628;2022-07-29T01:33:29;24.80;57.40
40738;DHT22;54759;48.094;-1.628;2022-07-29T01:36:48;25.00;57.60
40738;DHT22;54759;48.094;-1.628;2022-07-29T01:39:54;24.90;57.50
40738;DHT22;54759;48.094;-1.628;2022-07-29T01:42:58;24.80;57.50
40738;DHT22;54759;48.094;-1.628;2022-07-29T01:46:04;24.70;57.40
40738;DHT22;54759;48.094;-1.628;2022-07-29T01:49:10;24.70;57.30
40738;DHT22;54759;48.094;-1.628;2022-07-29T01:52:18;24.80;57.20
40738;DHT22;54759;48.094;-1.628;2022-07-29T01:55:24;24.70;57.00
40738;DHT22;54759;48.094;-1.628;2022-07-29T01:58:27;24.70;56.80
40738;DHT22;54759;48.094;-1.628;2022-07-29T02:01:31;24.50;56.80
40738;DHT22;54759;48.094;-1.628;2022-07-29T02:04:35;24.50;56.70
40738;DHT22;54759;48.094;-1.628;2022-07-29T02:07:39;24.80;56.50
40738;DHT22;54759;48.094;-1.628;2022-07-29T02:10:42;24.70;56.70
40738;DHT22;54759;48.094;-1.628;2022-07-29T02:13:45;25.10;56.80
40738;DHT22;54759;48.094;-1.628;2022-07-29T02:16:52;24.90;56.60
40738;DHT22;54759;48.094;-1.628;2022-07-29T02:20:00;24.70;56.30
40738;DHT22;54759;48.094;-1.628;2022-07-29T02:23:03;24.80;56.40
40738;DHT22;54759;48.094;-1.628;2022-07-29T02:26:07;24.90;56.30
40738;DHT22;54759;48.094;-1.628;2022-07-29T02:29:10;24.80;56.30
40738;DHT22;54759;48.094;-1.628;2022-07-29T02:32:15;24.70;56.30
40738;DHT22;54759;48.094;-1.628;2022-07-29T02:35:18;25.30;56.40
40738;DHT22;54759;48.094;-1.628;2022-07-29T02:38:22;24.80;55.90
40738;DHT22;54759;48.094;-1.628;2022-07-29T02:41:41;25.00;56.20
40738;DHT22;54759;48.094;-1.628;2022-07-29T02:44:43;24.90;56.10
40738;DHT22;54759;48.094;-1.628;2022-07-29T02:47:48;24.80;56.00
40738;DHT22;54759;48.094;-1.628;2022-07-29T02:50:54;24.60;55.70
40738;DHT22;54759;48.094;-1.628;2022-07-29T02:54:03;24.70;55.80
40738;DHT22;54759;48.094;-1.628;2022-07-29T02:57:14;24.50;55.50
40738;DHT22;54759;48.094;-1.628;2022-07-29T03:00:21;25.10;55.80
40738;DHT22;54759;48.094;-1.628;2022-07-29T03:03:25;24.50;55.40
40738;DHT22;54759;48.094;-1.628;2022-07-29T03:06:30;25.00;55.70
40738;DHT22;54759;48.094;-1.628;2022-07-29T03:09:40;24.40;55.30
40738;DHT22;54759;48.094;-1.628;2022-07-29T03:12:43;24.80;55.50
40738;DHT22;54759;48.094;-1.628;2022-07-29T03:15:46;24.70;55.40
40738;DHT22;54759;48.094;-1.628;2022-07-29T03:18:48;24.80;55.40
40738;DHT22;54759;48.094;-1.628;2022-07-29T03:21:51;24.60;55.20
40738;DHT22;54759;48.094;-1.628;2022-07-29T03:24:52;24.50;55.20
40738;DHT22;54759;48.094;-1.628;2022-07-29T03:27:54;24.70;55.40
40738;DHT22;54759;48.094;-1.628;2022-07-29T03:30:56;24.50;55.30
40738;DHT22;54759;48.094;-1.628;2022-07-29T03:33:58;24.80;55.50
40738;DHT22;54759;48.094;-1.628;2022-07-29T03:36:59;24.70;55.40
40738;DHT22;54759;48.094;-1.628;2022-07-29T03:40:05;24.80;55.30
40738;DHT22;54759;48.094;-1.628;2022-07-29T03:43:10;24.60;55.10
40738;DHT22;54759;48.094;-1.628;2022-07-29T03:46:14;25.00;55.20
40738;DHT22;54759;48.094;-1.628;2022-07-29T03:49:18;24.50;55.00
40738;DHT22;54759;48.094;-1.628;2022-07-29T03:52:21;24.50;55.00
40738;DHT22;54759;48.094;-1.628;2022-07-29T03:55:23;24.80;55.20
40738;DHT22;54759;48.094;-1.628;2022-07-29T03:58:26;24.70;55.00
40738;DHT22;54759;48.094;-1.628;2022-07-29T04:01:28;24.70;55.00
40738;DHT22;54759;48.094;-1.628;2022-07-29T04:04:32;24.90;55.10
40738;DHT22;54759;48.094;-1.628;2022-07-29T04:07:34;24.80;55.00
40738;DHT22;54759;48.094;-1.628;2022-07-29T04:10:36;24.70;55.00
40738;DHT22;54759;48.094;-1.628;2022-07-29T04:13:40;24.60;54.90
40738;DHT22;54759;48.094;-1.628;2022-07-29T04:16:44;24.60;54.90
40738;DHT22;54759;48.094;-1.628;2022-07-29T04:19:46;25.10;55.20
40738;DHT22;54759;48.094;-1.628;2022-07-29T04:22:48;24.40;54.80
40738;DHT22;54759;48.094;-1.628;2022-07-29T04:25:49;24.90;55.00
40738;DHT22;54759;48.094;-1.628;2022-07-29T04:28:51;24.40;54.80
40738;DHT22;54759;48.094;-1.628;2022-07-29T04:31:52;24.60;54.90
40738;DHT22;54759;48.094;-1.628;2022-07-29T04:34:57;24.90;55.00
40738;DHT22;54759;48.094;-1.628;2022-07-29T04:37:59;24.90;55.10
40738;DHT22;54759;48.094;-1.628;2022-07-29T04:41:00;24.30;54.70
40738;DHT22;54759;48.094;-1.628;2022-07-29T04:44:02;24.60;55.00
40738;DHT22;54759;48.094;-1.628;2022-07-29T04:47:08;25.10;54.40
40738;DHT22;54759;48.094;-1.628;2022-07-29T04:50:10;25.00;55.10
40738;DHT22;54759;48.094;-1.628;2022-07-29T04:53:15;24.80;55.10
40738;DHT22;54759;48.094;-1.628;2022-07-29T04:56:17;24.90;55.20
40738;DHT22;54759;48.094;-1.628;2022-07-29T04:59:19;24.50;55.00
40738;DHT22;54759;48.094;-1.628;2022-07-29T05:02:21;24.70;55.00
40738;DHT22;54759;48.094;-1.628;2022-07-29T05:05:26;24.50;55.00
40738;DHT22;54759;48.094;-1.628;2022-07-29T05:08:28;24.90;55.30
40738;DHT22;54759;48.094;-1.628;2022-07-29T05:11:29;25.70;55.70
40738;DHT22;54759;48.094;-1.628;2022-07-29T05:14:31;25.10;55.40
40738;DHT22;54759;48.094;-1.628;2022-07-29T05:17:33;24.30;54.90
40738;DHT22;54759;48.094;-1.628;2022-07-29T05:20:35;24.90;55.40
40738;DHT22;54759;48.094;-1.628;2022-07-29T05:23:37;25.10;55.60
40738;DHT22;54759;48.094;-1.628;2022-07-29T05:26:39;24.90;55.40
40738;DHT22;54759;48.094;-1.628;2022-07-29T05:29:40;24.80;55.10
40738;DHT22;54759;48.094;-1.628;2022-07-29T05:32:46;24.70;55.20
40738;DHT22;54759;48.094;-1.628;2022-07-29T05:35:48;24.90;55.40
40738;DHT22;54759;48.094;-1.628;2022-07-29T05:38:50;24.50;55.30
40738;DHT22;54759;48.094;-1.628;2022-07-29T05:41:53;24.70;55.30
40738;DHT22;54759;48.094;-1.628;2022-07-29T05:44:54;24.70;55.50
40738;DHT22;54759;48.094;-1.628;2022-07-29T05:47:56;24.50;55.30
40738;DHT22;54759;48.094;-1.628;2022-07-29T05:50:58;24.60;55.30
40738;DHT22;54759;48.094;-1.628;2022-07-29T05:54:00;24.70;55.40
40738;DHT22;54759;48.094;-1.628;2022-07-29T05:57:02;24.70;55.40
40738;DHT22;54759;48.094;-1.628;2022-07-29T06:00:05;24.80;55.50
40738;DHT22;54759;48.094;-1.628;2022-07-29T06:03:13;24.60;55.20
40738;DHT22;54759;48.094;-1.628;2022-07-29T06:06:15;24.60;55.20
40738;DHT22;54759;48.094;-1.628;2022-07-29T06:09:16;24.80;55.00
40738;DHT22;54759;48.094;-1.628;2022-07-29T06:12:18;24.70;55.30
40738;DHT22;54759;48.094;-1.628;2022-07-29T06:15:20;24.80;55.60
40738;DHT22;54759;48.094;-1.628;2022-07-29T06:18:22;25.20;55.70
40738;DHT22;54759;48.094;-1.628;2022-07-29T06:21:25;24.50;55.30
40738;DHT22;54759;48.094;-1.628;2022-07-29T06:24:27;24.80;55.40
40738;DHT22;54759;48.094;-1.628;2022-07-29T06:27:28;24.70;55.60
40738;DHT22;54759;48.094;-1.628;2022-07-29T06:30:30;24.80;55.50
40738;DHT22;54759;48.094;-1.628;2022-07-29T06:33:32;24.60;55.60
40738;DHT22;54759;48.094;-1.628;2022-07-29T06:36:35;24.90;55.50
40738;DHT22;54759;48.094;-1.628;2022-07-29T06:39:38;24.60;55.40
40738;DHT22;54759;48.094;-1.628;2022-07-29T06:42:42;24.60;55.20
40738;DHT22;54759;48.094;-1.628;2022-07-29T06:45:43;24.80;55.60
40738;DHT22;54759;48.094;-1.628;2022-07-29T06:48:46;24.80;55.50
40738;DHT22;54759;48.094;-1.628;2022-07-29T06:51:48;24.70;55.30
40738;DHT22;54759;48.094;-1.628;2022-07-29T06:54:50;24.80;55.60
40738;DHT22;54759;48.094;-1.628;2022-07-29T06:57:52;24.90;55.70
40738;DHT22;54759;48.094;-1.628;2022-07-29T07:00:53;24.90;55.60
40738;DHT22;54759;48.094;-1.628;2022-07-29T07:03:55;24.80;55.60
40738;DHT22;54759;48.094;-1.628;2022-07-29T07:06:58;24.90;55.50
40738;DHT22;54759;48.094;-1.628;2022-07-29T07:10:00;24.70;55.60
40738;DHT22;54759;48.094;-1.628;2022-07-29T07:13:03;24.70;55.50
40738;DHT22;54759;48.094;-1.628;2022-07-29T07:16:05;24.70;55.40
40738;DHT22;54759;48.094;-1.628;2022-07-29T07:19:06;24.80;55.30
40738;DHT22;54759;48.094;-1.628;2022-07-29T07:22:09;25.00;55.70
40738;DHT22;54759;48.094;-1.628;2022-07-29T07:25:11;25.00;55.30
40738;DHT22;54759;48.094;-1.628;2022-07-29T07:28:12;25.10;56.10
40738;DHT22;54759;48.094;-1.628;2022-07-29T07:31:14;24.80;54.90
40738;DHT22;54759;48.094;-1.628;2022-07-29T07:34:15;24.90;55.40
40738;DHT22;54759;48.094;-1.628;2022-07-29T07:37:30;25.10;55.40
40738;DHT22;54759;48.094;-1.628;2022-07-29T07:40:31;25.00;55.30
40738;DHT22;54759;48.094;-1.628;2022-07-29T07:43:33;24.70;55.00
40738;DHT22;54759;48.094;-1.628;2022-07-29T07:46:34;25.20;55.40
40738;DHT22;54759;48.094;-1.628;2022-07-29T07:49:36;24.90;55.00
40738;DHT22;54759;48.094;-1.628;2022-07-29T07:52:47;24.80;55.10
40738;DHT22;54759;48.094;-1.628;2022-07-29T07:55:50;25.40;55.30
40738;DHT22;54759;48.094;-1.628;2022-07-29T07:59:11;25.10;55.70
40738;DHT22;54759;48.094;-1.628;2022-07-29T08:02:13;25.30;55.20
40738;DHT22;54759;48.094;-1.628;2022-07-29T08:05:15;25.30;55.40
40738;DHT22;54759;48.094;-1.628;2022-07-29T08:08:18;25.20;55.10
40738;DHT22;54759;48.094;-1.628;2022-07-29T08:11:20;24.80;54.90
40738;DHT22;54759;48.094;-1.628;2022-07-29T08:14:22;25.20;55.00
40738;DHT22;54759;48.094;-1.628;2022-07-29T08:17:23;25.30;55.30
40738;DHT22;54759;48.094;-1.628;2022-07-29T08:20:25;25.00;55.10
40738;DHT22;54759;48.094;-1.628;2022-07-29T08:23:27;25.20;55.30
40738;DHT22;54759;48.094;-1.628;2022-07-29T08:26:49;25.20;55.10
40738;DHT22;54759;48.094;-1.628;2022-07-29T08:29:51;25.10;55.20
40738;DHT22;54759;48.094;-1.628;2022-07-29T08:32:52;25.20;55.30
40738;DHT22;54759;48.094;-1.628;2022-07-29T08:35:56;25.20;55.30
40738;DHT22;54759;48.094;-1.628;2022-07-29T08:38:59;25.00;55.20
40738;DHT22;54759;48.094;-1.628;2022-07-29T08:42:00;25.40;55.10
40738;DHT22;54759;48.094;-1.628;2022-07-29T08:45:02;25.40;55.00
40738;DHT22;54759;48.094;-1.628;2022-07-29T08:48:04;25.30;55.20
40738;DHT22;54759;48.094;-1.628;2022-07-29T08:51:14;25.40;55.00
40738;DHT22;54759;48.094;-1.628;2022-07-29T08:54:17;25.30;54.80
40738;DHT22;54759;48.094;-1.628;2022-07-29T08:57:21;25.20;55.00
40738;DHT22;54759;48.094;-1.628;2022-07-29T09:00:24;25.10;54.90
40738;DHT22;54759;48.094;-1.628;2022-07-29T09:03:30;25.10;54.90
40738;DHT22;54759;48.094;-1.628;2022-07-29T09:06:34;25.00;54.90
40738;DHT22;54759;48.094;-1.628;2022-07-29T09:09:38;25.30;55.00
40738;DHT22;54759;48.094;-1.628;2022-07-29T09:12:40;25.30;55.20
40738;DHT22;54759;48.094;-1.628;2022-07-29T09:15:43;25.50;55.00
40738;DHT22;54759;48.094;-1.628;2022-07-29T09:18:45;25.30;55.00
40738;DHT22;54759;48.094;-1.628;2022-07-29T09:21:47;25.10;54.80
40738;DHT22;54759;48.094;-1.628;2022-07-29T09:25:06;25.30;55.00
40738;DHT22;54759;48.094;-1.628;2022-07-29T09:28:09;25.10;54.60
40738;DHT22;54759;48.094;-1.628;2022-07-29T09:31:11;25.30;54.90
40738;DHT22;54759;48.094;-1.628;2022-07-29T09:34:14;25.30;55.00
40738;DHT22;54759;48.094;-1.628;2022-07-29T09:37:26;25.30;54.90
40738;DHT22;54759;48.094;-1.628;2022-07-29T09:40:29;25.60;55.20
40738;DHT22;54759;48.094;-1.628;2022-07-29T09:43:30;25.30;55.00
40738;DHT22;54759;48.094;-1.628;2022-07-29T09:46:32;25.30;55.40
40738;DHT22;54759;48.094;-1.628;2022-07-29T09:49:35;25.60;55.10
40738;DHT22;54759;48.094;-1.628;2022-07-29T09:52:46;25.30;54.80
40738;DHT22;54759;48.094;-1.628;2022-07-29T09:55:49;25.40;54.90
40738;DHT22;54759;48.094;-1.628;2022-07-29T09:59:05;25.00;54.60
40738;DHT22;54759;48.094;-1.628;2022-07-29T10:02:11;25.40;55.10
40738;DHT22;54759;48.094;-1.628;2022-07-29T10:05:19;25.40;54.90
40738;DHT22;54759;48.094;-1.628;2022-07-29T10:08:25;25.60;55.10
40738;DHT22;54759;48.094;-1.628;2022-07-29T10:11:27;25.40;54.90
40738;DHT22;54759;48.094;-1.628;2022-07-29T10:14:49;25.40;55.10
40738;DHT22;54759;48.094;-1.628;2022-07-29T10:17:52;25.50;55.00
40738;DHT22;54759;48.094;-1.628;2022-07-29T10:20:54;25.30;55.00
40738;DHT22;54759;48.094;-1.628;2022-07-29T10:24:00;25.30;54.90
40738;DHT22;54759;48.094;-1.628;2022-07-29T10:27:09;25.70;55.20
40738;DHT22;54759;48.094;-1.628;2022-07-29T10:30:11;25.30;55.10
40738;DHT22;54759;48.094;-1.628;2022-07-29T10:33:25;25.80;55.30
40738;DHT22;54759;48.094;-1.628;2022-07-29T10:36:40;25.40;55.00
40738;DHT22;54759;48.094;-1.628;2022-07-29T10:39:54;25.30;55.00
40738;DHT22;54759;48.094;-1.628;2022-07-29T10:43:09;25.40;55.10
40738;DHT22;54759;48.094;-1.628;2022-07-29T10:46:16;25.20;54.80
40738;DHT22;54759;48.094;-1.628;2022-07-29T10:49:20;25.30;54.70
40738;DHT22;54759;48.094;-1.628;2022-07-29T10:52:55;25.40;55.10
40738;DHT22;54759;48.094;-1.628;2022-07-29T10:55:58;25.20;55.00
40738;DHT22;54759;48.094;-1.628;2022-07-29T11:02:45;25.20;55.70
40738;DHT22;54759;48.094;-1.628;2022-07-29T11:05:54;25.10;55.00
40738;DHT22;54759;48.094;-1.628;2022-07-29T11:09:18;25.30;55.00
40738;DHT22;54759;48.094;-1.628;2022-07-29T11:15:53;25.30;55.10
40738;DHT22;54759;48.094;-1.628;2022-07-29T11:22:33;25.10;55.10
40738;DHT22;54759;48.094;-1.628;2022-07-29T11:25:36;25.30;55.10
40738;DHT22;54759;48.094;-1.628;2022-07-29T11:28:57;25.30;55.00
40738;DHT22;54759;48.094;-1.628;2022-07-29T11:32:09;25.40;55.10
40738;DHT22;54759;48.094;-1.628;2022-07-29T11:35:18;25.60;55.40
40738;DHT22;54759;48.094;-1.628;2022-07-29T11:38:40;25.30;55.20
40738;DHT22;54759;48.094;-1.628;2022-07-29T11:41:42;25.50;55.20
40738;DHT22;54759;48.094;-1.628;2022-07-29T11:44:56;25.70;55.00
40738;DHT22;54759;48.094;-1.628;2022-07-29T11:47:59;25.40;55.10
40738;DHT22;54759;48.094;-1.628;2022-07-29T11:51:20;25.40;55.40
40738;DHT22;54759;48.094;-1.628;2022-07-29T11:54:35;25.50;55.50
40738;DHT22;54759;48.094;-1.628;2022-07-29T11:57:59;25.20;55.00
40738;DHT22;54759;48.094;-1.628;2022-07-29T12:01:21;25.60;55.50
40738;DHT22;54759;48.094;-1.628;2022-07-29T12:04:25;25.30;55.50
40738;DHT22;54759;48.094;-1.628;2022-07-29T12:07:29;25.50;55.30
40738;DHT22;54759;48.094;-1.628;2022-07-29T12:10:36;25.80;55.60
40738;DHT22;54759;48.094;-1.628;2022-07-29T12:13:39;25.50;55.30
40738;DHT22;54759;48.094;-1.628;2022-07-29T12:16:40;25.50;55.50
40738;DHT22;54759;48.094;-1.628;2022-07-29T12:19:42;25.40;55.40
40738;DHT22;54759;48.094;-1.628;2022-07-29T12:22:45;25.50;55.70
40738;DHT22;54759;48.094;-1.628;2022-07-29T12:25:50;25.00;55.20
40738;DHT22;54759;48.094;-1.628;2022-07-29T12:28:54;25.50;55.70
40738;DHT22;54759;48.094;-1.628;2022-07-29T12:32:03;25.50;55.40
40738;DHT22;54759;48.094;-1.628;2022-07-29T12:35:18;25.50;55.50
40738;DHT22;54759;48.094;-1.628;2022-07-29T12:38:20;25.40;55.50
40738;DHT22;54759;48.094;-1.628;2022-07-29T12:41:23;25.30;55.30
40738;DHT22;54759;48.094;-1.628;2022-07-29T12:44:43;25.40;54.50
40738;DHT22;54759;48.094;-1.628;2022-07-29T12:47:52;25.40;55.10
40738;DHT22;54759;48.094;-1.628;2022-07-29T12:50:56;25.50;55.30
40738;DHT22;54759;48.094;-1.628;2022-07-29T12:54:07;25.60;55.40
40738;DHT22;54759;48.094;-1.628;2022-07-29T12:57:10;25.40;55.20
40738;DHT22;54759;48.094;-1.628;2022-07-29T13:00:23;25.40;55.40
40738;DHT22;54759;48.094;-1.628;2022-07-29T13:03:25;25.50;55.10
40738;DHT22;54759;48.094;-1.628;2022-07-29T13:06:30;25.20;55.40
40738;DHT22;54759;48.094;-1.628;2022-07-29T13:09:41;25.50;55.40
40738;DHT22;54759;48.094;-1.628;2022-07-29T13:13:04;25.50;55.50
40738;DHT22;54759;48.094;-1.628;2022-07-29T13:16:07;25.20;55.30
40738;DHT22;54759;48.094;-1.628;2022-07-29T13:19:11;25.50;55.50
40738;DHT22;54759;48.094;-1.628;2022-07-29T13:22:14;25.40;55.30
40738;DHT22;54759;48.094;-1.628;2022-07-29T13:25:23;25.10;55.20
40738;DHT22;54759;48.094;-1.628;2022-07-29T13:28:26;25.20;55.30
40738;DHT22;54759;48.094;-1.628;2022-07-29T13:31:27;25.30;55.30
40738;DHT22;54759;48.094;-1.628;2022-07-29T13:34:29;25.50;55.00
40738;DHT22;54759;48.094;-1.628;2022-07-29T13:37:32;25.50;55.40
40738;DHT22;54759;48.094;-1.628;2022-07-29T13:40:35;25.70;55.30
40738;DHT22;54759;48.094;-1.628;2022-07-29T13:43:37;25.50;55.40
40738;DHT22;54759;48.094;-1.628;2022-07-29T13:46:38;25.50;55.20
40738;DHT22;54759;48.094;-1.628;2022-07-29T13:49:40;25.40;55.50
40738;DHT22;54759;48.094;-1.628;2022-07-29T13:52:42;25.60;55.30
40738;DHT22;54759;48.094;-1.628;2022-07-29T13:55:44;25.40;55.70
40738;DHT22;54759;48.094;-1.628;2022-07-29T13:58:46;25.50;55.50
40738;DHT22;54759;48.094;-1.628;2022-07-29T14:01:48;25.50;55.90
40738;DHT22;54759;48.094;-1.628;2022-07-29T14:04:49;25.50;55.90
40738;DHT22;54759;48.094;-1.628;2022-07-29T14:07:51;25.50;55.80
40738;DHT22;54759;48.094;-1.628;2022-07-29T14:10:53;25.40;55.90
40738;DHT22;54759;48.094;-1.628;2022-07-29T14:13:55;25.60;56.00
40738;DHT22;54759;48.094;-1.628;2022-07-29T14:16:57;25.50;55.80
40738;DHT22;54759;48.094;-1.628;2022-07-29T14:19:59;25.50;55.90
40738;DHT22;54759;48.094;-1.628;2022-07-29T14:23:01;25.30;55.60
40738;DHT22;54759;48.094;-1.628;2022-07-29T14:26:03;25.50;55.90
40738;DHT22;54759;48.094;-1.628;2022-07-29T14:29:10;25.20;55.50
40738;DHT22;54759;48.094;-1.628;2022-07-29T14:32:11;25.40;55.70
40738;DHT22;54759;48.094;-1.628;2022-07-29T14:35:15;25.40;55.70
40738;DHT22;54759;48.094;-1.628;2022-07-29T14:38:17;25.80;56.10
40738;DHT22;54759;48.094;-1.628;2022-07-29T14:41:18;25.60;55.90
40738;DHT22;54759;48.094;-1.628;2022-07-29T14:44:20;25.40;55.70
40738;DHT22;54759;48.094;-1.628;2022-07-29T14:47:22;25.80;55.80
40738;DHT22;54759;48.094;-1.628;2022-07-29T14:50:24;25.80;56.10
40738;DHT22;54759;48.094;-1.628;2022-07-29T14:53:33;25.60;55.50
40738;DHT22;54759;48.094;-1.628;2022-07-29T14:56:34;25.50;55.80
40738;DHT22;54759;48.094;-1.628;2022-07-29T14:59:38;25.40;55.50
40738;DHT22;54759;48.094;-1.628;2022-07-29T15:02:40;25.10;55.50
40738;DHT22;54759;48.094;-1.628;2022-07-29T15:06:02;25.60;55.90
40738;DHT22;54759;48.094;-1.628;2022-07-29T15:09:03;25.40;55.80
40738;DHT22;54759;48.094;-1.628;2022-07-29T15:12:05;25.40;55.50
40738;DHT22;54759;48.094;-1.628;2022-07-29T15:15:08;25.30;55.40
40738;DHT22;54759;48.094;-1.628;2022-07-29T15:18:10;25.50;55.70
40738;DHT22;54759;48.094;-1.628;2022-07-29T15:21:11;25.40;55.70
40738;DHT22;54759;48.094;-1.628;2022-07-29T15:24:13;25.30;55.50
40738;DHT22;54759;48.094;-1.628;2022-07-29T15:27:14;25.90;56.00
40738;DHT22;54759;48.094;-1.628;2022-07-29T15:30:16;25.40;55.20
40738;DHT22;54759;48.094;-1.628;2022-07-29T15:33:34;25.90;55.90
40738;DHT22;54759;48.094;-1.628;2022-07-29T15:36:36;25.60;55.80
40738;DHT22;54759;48.094;-1.628;2022-07-29T15:39:54;25.40;55.80
40738;DHT22;54759;48.094;-1.628;2022-07-29T15:43:03;25.50;55.70
40738;DHT22;54759;48.094;-1.628;2022-07-29T15:46:06;25.40;56.10
40738;DHT22;54759;48.094;-1.628;2022-07-29T15:49:23;25.20;55.10
40738;DHT22;54759;48.094;-1.628;2022-07-29T15:52:49;25.30;55.30
40738;DHT22;54759;48.094;-1.628;2022-07-29T15:55:51;25.50;55.40
40738;DHT22;54759;48.094;-1.628;2022-07-29T15:58:53;25.30;55.30
40738;DHT22;54759;48.094;-1.628;2022-07-29T16:01:55;25.20;55.10
40738;DHT22;54759;48.094;-1.628;2022-07-29T16:04:57;25.40;55.10
40738;DHT22;54759;48.094;-1.628;2022-07-29T16:07:59;25.50;55.20
40738;DHT22;54759;48.094;-1.628;2022-07-29T16:11:01;25.70;55.40
40738;DHT22;54759;48.094;-1.628;2022-07-29T16:14:02;25.90;55.30
40738;DHT22;54759;48.094;-1.628;2022-07-29T16:17:05;25.30;55.00
40738;DHT22;54759;48.094;-1.628;2022-07-29T16:20:07;25.10;54.60
40738;DHT22;54759;48.094;-1.628;2022-07-29T16:23:09;25.50;54.90
40738;DHT22;54759;48.094;-1.628;2022-07-29T16:26:12;25.30;54.70
40738;DHT22;54759;48.094;-1.628;2022-07-29T16:29:13;25.30;54.80
40738;DHT22;54759;48.094;-1.628;2022-07-29T16:32:15;25.40;54.70
40738;DHT22;54759;48.094;-1.628;2022-07-29T16:35:23;25.30;54.70
40738;DHT22;54759;48.094;-1.628;2022-07-29T16:38:41;25.50;54.70
40738;DHT22;54759;48.094;-1.628;2022-07-29T16:41:48;25.90;55.10
40738;DHT22;54759;48.094;-1.628;2022-07-29T16:44:49;25.50;54.70
40738;DHT22;54759;48.094;-1.628;2022-07-29T16:47:53;25.60;54.90
40738;DHT22;54759;48.094;-1.628;2022-07-29T16:51:01;25.90;55.10
40738;DHT22;54759;48.094;-1.628;2022-07-29T16:54:03;25.60;55.10
40738;DHT22;54759;48.094;-1.628;2022-07-29T16:57:05;25.60;55.00
40738;DHT22;54759;48.094;-1.628;2022-07-29T17:00:07;25.60;55.40
40738;DHT22;54759;48.094;-1.628;2022-07-29T17:03:09;25.60;55.30
40738;DHT22;54759;48.094;-1.628;2022-07-29T17:06:14;25.30;55.30
40738;DHT22;54759;48.094;-1.628;2022-07-29T17:09:15;25.80;55.50
40738;DHT22;54759;48.094;-1.628;2022-07-29T17:12:18;25.50;55.60
40738;DHT22;54759;48.094;-1.628;2022-07-29T17:15:19;25.60;55.70
40738;DHT22;54759;48.094;-1.628;2022-07-29T17:18:22;25.60;55.70
40738;DHT22;54759;48.094;-1.628;2022-07-29T17:21:26;25.50;55.70
40738;DHT22;54759;48.094;-1.628;2022-07-29T17:24:27;25.90;56.00
40738;DHT22;54759;48.094;-1.628;2022-07-29T17:27:30;25.30;55.50
40738;DHT22;54759;48.094;-1.628;2022-07-29T17:30:32;25.60;56.20
40738;DHT22;54759;48.094;-1.628;2022-07-29T17:33:34;25.50;55.90
40738;DHT22;54759;48.094;-1.628;2022-07-29T17:36:36;25.50;55.90
40738;DHT22;54759;48.094;-1.628;2022-07-29T17:39:41;25.60;55.90
40738;DHT22;54759;48.094;-1.628;2022-07-29T17:42:43;25.90;56.10
40738;DHT22;54759;48.094;-1.628;2022-07-29T17:45:44;25.80;56.20
40738;DHT22;54759;48.094;-1.628;2022-07-29T17:48:52;25.60;56.20
40738;DHT22;54759;48.094;-1.628;2022-07-29T17:51:58;25.60;56.00
40738;DHT22;54759;48.094;-1.628;2022-07-29T17:55:02;25.60;56.00
40738;DHT22;54759;48.094;-1.628;2022-07-29T17:58:03;25.60;56.10
40738;DHT22;54759;48.094;-1.628;2022-07-29T18:01:05;25.80;56.10
40738;DHT22;54759;48.094;-1.628;2022-07-29T18:04:08;25.50;55.80
40738;DHT22;54759;48.094;-1.628;2022-07-29T18:07:09;25.40;55.70
40738;DHT22;54759;48.094;-1.628;2022-07-29T18:10:11;25.80;55.80
40738;DHT22;54759;48.094;-1.628;2022-07-29T18:13:13;25.70;55.70
40738;DHT22;54759;48.094;-1.628;2022-07-29T18:16:16;25.50;55.60
40738;DHT22;54759;48.094;-1.628;2022-07-29T18:19:18;25.70;55.40
40738;DHT22;54759;48.094;-1.628;2022-07-29T18:22:21;25.90;55.30
40738;DHT22;54759;48.094;-1.628;2022-07-29T18:25:23;25.70;55.20
40738;DHT22;54759;48.094;-1.628;2022-07-29T18:28:28;25.80;55.00
40738;DHT22;54759;48.094;-1.628;2022-07-29T18:31:30;25.70;54.80
40738;DHT22;54759;48.094;-1.628;2022-07-29T18:34:32;25.70;54.50
40738;DHT22;54759;48.094;-1.628;2022-07-29T18:37:34;26.00;54.60
40738;DHT22;54759;48.094;-1.628;2022-07-29T18:40:57;25.70;54.20
40738;DHT22;54759;48.094;-1.628;2022-07-29T18:43:58;25.50;53.80
40738;DHT22;54759;48.094;-1.628;2022-07-29T18:47:00;25.80;53.80
40738;DHT22;54759;48.094;-1.628;2022-07-29T18:50:04;25.70;53.40
40738;DHT22;54759;48.094;-1.628;2022-07-29T18:53:06;25.70;52.80
40738;DHT22;54759;48.094;-1.628;2022-07-29T18:56:07;25.50;52.60
40738;DHT22;54759;48.094;-1.628;2022-07-29T18:59:12;25.60;52.40
40738;DHT22;54759;48.094;-1.628;2022-07-29T19:02:16;26.00;51.90
40738;DHT22;54759;48.094;-1.628;2022-07-29T19:05:19;25.80;51.90
40738;DHT22;54759;48.094;-1.628;2022-07-29T19:08:21;25.70;51.70
40738;DHT22;54759;48.094;-1.628;2022-07-29T19:11:22;25.70;51.60
40738;DHT22;54759;48.094;-1.628;2022-07-29T19:14:24;25.50;51.50
40738;DHT22;54759;48.094;-1.628;2022-07-29T19:17:25;25.70;51.50